createdAt,value
2022-08-07T00:02:37.131Z,29.01
2022-08-07T00:03:05.432Z,28.89
2022-08-07T00:04:15.323Z,28.86
2022-08-07T00:05:16.647Z,28.81
2022-08-07T00:06:32.921Z,28.78
2022-08-07T00:07:48.072Z,28.79
2022-08-07T00:08:53.357Z,28.80
2022-08-07T00:10:19.123Z,28.83
2022-08-07T00:11:06.443Z,28.88
2022-08-07T00:13:25.784Z,29.01
2022-08-07T00:14:30.158Z,28.88
2022-08-07T00:15:37.644Z,28.82
2022-08-07T00:17:01.935Z,28.75
2022-08-07T00:19:21.615Z,28.80
2022-08-07T00:20:29.829Z,28.64
2022-08-07T00:21:56.148Z,28.67
2022-08-07T00:22:35.334Z,28.65
2022-08-07T00:24:51.743Z,28.80
2022-08-07T00:26:00.025Z,28.70
2022-08-07T00:28:12.461Z,28.86
2022-08-07T00:29:18.671Z,28.77
2022-08-07T00:30:27.000Z,28.81
2022-08-07T00:32:41.470Z,28.96
2022-08-07T00:33:47.710Z,28.83
2022-08-07T00:36:04.584Z,28.98
2022-08-07T00:38:31.359Z,28.91
2022-08-07T00:39:26.274Z,28.78
2022-08-07T00:42:02.481Z,28.94
2022-08-07T00:44:00.785Z,28.81
2022-08-07T00:45:27.654Z,28.99
2022-08-07T00:48:09.273Z,29.01
2022-08-07T00:48:49.982Z,28.82
2022-08-07T00:50:20.124Z,28.70
2022-08-07T00:52:12.514Z,28.92
2022-08-07T00:53:16.629Z,28.72
2022-08-07T00:54:21.160Z,28.70
2022-08-07T00:56:36.925Z,29.02
2022-08-07T00:57:55.107Z,28.87
2022-08-07T00:58:46.921Z,28.71
2022-08-07T00:59:52.933Z,28.77
2022-08-07T01:02:14.078Z,28.78
2022-08-07T01:04:25.401Z,28.82
2022-08-07T01:05:31.353Z,28.52
2022-08-07T01:06:36.797Z,28.70
2022-08-07T01:07:40.693Z,28.75
2022-08-07T01:08:52.816Z,28.77
2022-08-07T01:10:06.690Z,28.77
2022-08-07T01:10:56.864Z,28.78
2022-08-07T01:13:16.370Z,28.93
2022-08-07T01:16:05.307Z,28.98
2022-08-07T01:16:43.109Z,28.82
2022-08-07T01:18:58.002Z,28.87
2022-08-07T01:20:08.746Z,28.75
2022-08-07T01:21:22.467Z,28.73
2022-08-07T01:22:22.796Z,28.73
2022-08-07T01:23:36.333Z,28.66
2022-08-07T01:24:55.401Z,28.67
2022-08-07T01:26:00.083Z,28.68
2022-08-07T01:27:04.888Z,28.65
2022-08-07T01:28:08.420Z,28.67
2022-08-07T01:29:14.192Z,28.68
2022-08-07T01:30:19.385Z,28.66
2022-08-07T01:32:34.347Z,28.79
2022-08-07T01:33:56.084Z,28.68
2022-08-07T01:34:44.312Z,28.69
2022-08-07T01:37:01.601Z,29.01
2022-08-07T01:39:17.030Z,28.98
2022-08-07T01:40:22.566Z,28.80
2022-08-07T01:41:27.874Z,28.79
2022-08-07T01:43:43.484Z,28.91
2022-08-07T01:44:47.949Z,28.80
2022-08-07T01:48:16.411Z,28.88
2022-08-07T01:48:30.466Z,28.72
2022-08-07T01:49:15.957Z,28.70
2022-08-07T01:52:04.166Z,28.80
2022-08-07T01:54:08.822Z,28.78
2022-08-07T01:58:29.074Z,28.65
2022-08-07T02:00:49.277Z,28.58
2022-08-07T02:03:21.672Z,28.55
2022-08-07T02:04:30.343Z,28.47
2022-08-07T02:07:12.957Z,28.61
2022-08-07T02:08:23.874Z,28.50
2022-08-07T02:09:33.897Z,28.48
2022-08-07T02:10:37.176Z,28.44
2022-08-07T02:12:59.695Z,28.57
2022-08-07T02:14:04.517Z,28.51
2022-08-07T02:15:09.591Z,28.51
2022-08-07T02:17:31.675Z,28.80
2022-08-07T02:18:37.005Z,28.72
2022-08-07T02:20:06.737Z,28.75
2022-08-07T02:22:04.518Z,28.97
2022-08-07T02:23:11.723Z,28.86
2022-08-07T02:26:46.633Z,29.02
2022-08-07T02:27:52.895Z,28.92
2022-08-07T02:30:10.162Z,29.09
2022-08-07T02:31:28.186Z,28.92
2022-08-07T02:32:23.424Z,28.94
2022-08-07T02:34:50.993Z,29.03
2022-08-07T02:36:28.944Z,28.90
2022-08-07T02:38:12.001Z,29.13
2022-08-07T02:39:42.436Z,29.02
2022-08-07T02:40:35.028Z,29.03
2022-08-07T02:41:33.566Z,28.99
2022-08-07T02:42:37.946Z,28.96
2022-08-07T02:44:56.224Z,29.09
2022-08-07T02:47:48.937Z,29.09
2022-08-07T02:48:40.529Z,28.97
2022-08-07T02:49:56.252Z,29.00
2022-08-07T02:52:09.577Z,29.09
2022-08-07T02:53:23.750Z,29.03
2022-08-07T02:54:31.860Z,28.93
2022-08-07T02:56:53.094Z,28.89
2022-08-07T02:59:14.670Z,28.84
2022-08-07T03:00:20.440Z,28.80
2022-08-07T03:02:54.959Z,28.95
2022-08-07T03:03:57.414Z,28.78
2022-08-07T03:05:04.815Z,28.77
2022-08-07T03:07:42.961Z,28.92
2022-08-07T03:08:29.525Z,28.85
2022-08-07T03:09:43.527Z,28.87
2022-08-07T03:11:57.748Z,29.10
2022-08-07T03:14:10.646Z,29.17
2022-08-07T03:15:14.437Z,29.07
2022-08-07T03:17:36.321Z,29.07
2022-08-07T03:18:39.236Z,28.92
2022-08-07T03:19:44.945Z,28.90
2022-08-07T03:22:04.436Z,28.98
2022-08-07T03:23:19.153Z,28.91
2022-08-07T03:24:17.805Z,28.88
2022-08-07T03:25:21.024Z,28.98
2022-08-07T03:26:28.242Z,29.04
2022-08-07T03:27:59.520Z,29.16
2022-08-07T03:28:40.340Z,29.28
2022-08-07T03:29:51.426Z,29.26
2022-08-07T03:30:56.665Z,29.29
2022-08-07T03:33:15.883Z,29.62
2022-08-07T03:35:43.979Z,29.59
2022-08-07T03:37:55.402Z,29.69
2022-08-07T03:39:05.756Z,29.58
2022-08-07T03:40:15.533Z,29.54
2022-08-07T03:41:16.479Z,29.49
2022-08-07T03:42:20.830Z,29.49
2022-08-07T03:44:38.978Z,29.72
2022-08-07T03:47:10.971Z,29.78
2022-08-07T03:48:01.796Z,29.66
2022-08-07T03:49:07.935Z,29.73
2022-08-07T03:51:30.701Z,30.00
2022-08-07T03:52:34.699Z,29.94
2022-08-07T03:54:05.950Z,29.95
2022-08-07T03:54:54.305Z,29.97
2022-08-07T03:55:57.836Z,30.01
2022-08-07T03:57:03.806Z,30.04
2022-08-07T03:59:15.687Z,30.21
2022-08-07T04:00:21.115Z,30.12
2022-08-07T04:02:41.142Z,30.29
2022-08-07T04:03:53.662Z,30.21
2022-08-07T04:04:50.969Z,30.23
2022-08-07T04:05:58.753Z,30.25
2022-08-07T04:07:00.354Z,30.28
2022-08-07T04:09:19.423Z,30.50
2022-08-07T04:12:24.712Z,30.63
2022-08-07T04:14:10.705Z,30.77
2022-08-07T04:14:59.392Z,30.67
2022-08-07T04:16:04.344Z,30.72
2022-08-07T04:17:20.498Z,30.74
2022-08-07T04:19:51.161Z,30.96
2022-08-07T04:21:59.371Z,31.07
2022-08-07T04:23:01.861Z,31.00
2022-08-07T04:24:05.744Z,31.05
2022-08-07T04:26:21.829Z,31.28
2022-08-07T04:27:25.691Z,31.18
2022-08-07T04:28:28.659Z,31.22
2022-08-07T04:29:48.955Z,31.30
2022-08-07T04:32:03.345Z,31.56
2022-08-07T04:32:58.552Z,31.46
2022-08-07T04:34:02.045Z,31.51
2022-08-07T04:36:22.745Z,31.78
2022-08-07T04:37:24.989Z,31.73
2022-08-07T04:38:30.370Z,31.78
2022-08-07T04:39:35.581Z,31.85
2022-08-07T04:41:53.368Z,32.17
2022-08-07T04:43:01.334Z,32.10
2022-08-07T04:44:12.292Z,32.18
2022-08-07T04:46:29.405Z,32.38
2022-08-07T04:47:58.856Z,32.29
2022-08-07T04:49:17.701Z,32.37
2022-08-07T04:52:00.526Z,32.58
2022-08-07T04:53:16.427Z,32.52
2022-08-07T04:54:19.200Z,32.64
2022-08-07T04:58:14.866Z,32.84
2022-08-07T05:02:21.580Z,32.93
2022-08-07T05:03:59.620Z,32.87
2022-08-07T05:06:19.669Z,33.03
2022-08-07T05:09:01.369Z,33.02
2022-08-07T05:11:24.276Z,33.19
2022-08-07T05:15:23.588Z,33.29
2022-08-07T05:17:52.503Z,33.34
2022-08-07T05:22:00.316Z,33.42
2022-08-07T05:22:36.633Z,33.36
2022-08-07T05:25:00.423Z,33.46
2022-08-07T05:26:25.846Z,33.40
2022-08-07T05:28:03.271Z,33.40
2022-08-07T05:28:50.113Z,33.49
2022-08-07T05:29:53.758Z,33.55
2022-08-07T05:30:59.785Z,33.60
2022-08-07T05:32:07.312Z,33.61
2022-08-07T05:33:13.410Z,33.64
2022-08-07T05:34:26.296Z,33.66
2022-08-07T05:35:33.578Z,33.69
2022-08-07T05:36:43.852Z,33.68
2022-08-07T05:38:08.882Z,33.68
2022-08-07T05:39:09.027Z,33.67
2022-08-07T05:40:16.464Z,33.79
2022-08-07T05:41:14.549Z,33.82
2022-08-07T05:42:17.903Z,33.88
2022-08-07T05:43:49.994Z,33.97
2022-08-07T05:45:47.325Z,34.27
2022-08-07T05:48:03.615Z,34.48
2022-08-07T05:50:21.990Z,34.60
2022-08-07T05:54:12.475Z,34.63
2022-08-07T05:56:19.963Z,34.77
2022-08-07T05:57:30.168Z,34.72
2022-08-07T05:58:36.584Z,34.81
2022-08-07T05:59:57.939Z,34.86
2022-08-07T06:02:04.333Z,35.09
2022-08-07T06:03:10.353Z,35.01
2022-08-07T06:05:31.357Z,35.14
2022-08-07T06:06:35.756Z,35.10
2022-08-07T06:08:14.918Z,35.20
2022-08-07T06:10:05.300Z,35.25
2022-08-07T06:12:07.451Z,35.42
2022-08-07T06:13:13.698Z,35.34
2022-08-07T06:14:21.245Z,35.40
2022-08-07T06:16:34.257Z,35.63
2022-08-07T06:17:41.156Z,35.64
2022-08-07T06:18:51.759Z,35.71
2022-08-07T06:20:04.293Z,35.73
2022-08-07T06:22:15.331Z,35.89
2022-08-07T06:22:15.779Z,35.79
2022-08-07T06:24:37.550Z,35.88
2022-08-07T06:24:38.061Z,35.90
2022-08-07T06:26:52.899Z,36.05
2022-08-07T06:28:04.573Z,36.03
2022-08-07T06:29:08.328Z,36.05
2022-08-07T06:30:31.970Z,36.06
2022-08-07T06:31:19.095Z,36.07
2022-08-07T06:32:23.628Z,36.10
2022-08-07T06:35:00.342Z,36.37
2022-08-07T06:36:12.918Z,36.41
2022-08-07T06:37:12.311Z,36.63
2022-08-07T06:38:20.210Z,36.44
2022-08-07T06:40:39.556Z,36.63
2022-08-07T06:43:21.497Z,36.74
2022-08-07T06:46:03.704Z,36.74
2022-08-07T06:47:11.990Z,36.63
2022-08-07T06:48:13.620Z,36.64
2022-08-07T06:49:19.141Z,36.79
2022-08-07T06:50:26.884Z,36.75
2022-08-07T06:51:34.201Z,36.77
2022-08-07T06:55:28.187Z,37.00
2022-08-07T06:55:33.327Z,36.91
2022-08-07T06:56:15.193Z,36.89
2022-08-07T06:57:14.467Z,36.93
2022-08-07T06:58:21.627Z,36.99
2022-08-07T07:00:43.426Z,37.23
2022-08-07T07:01:50.974Z,37.23
2022-08-07T07:02:57.527Z,37.35
2022-08-07T07:04:28.449Z,37.62
2022-08-07T07:06:26.370Z,37.70
2022-08-07T07:08:46.594Z,37.78
2022-08-07T07:09:51.125Z,37.66
2022-08-07T07:12:18.062Z,37.83
2022-08-07T07:15:03.731Z,37.91
2022-08-07T07:19:11.225Z,38.06
2022-08-07T07:22:04.705Z,38.07
2022-08-07T07:24:08.042Z,38.02
2022-08-07T07:24:09.134Z,38.21
2022-08-07T07:24:56.856Z,38.11
2022-08-07T07:27:12.789Z,38.45
2022-08-07T07:30:09.294Z,38.35
2022-08-07T07:32:43.382Z,38.45
2022-08-07T07:33:56.984Z,38.35
2022-08-07T07:35:00.412Z,38.40
2022-08-07T07:37:49.542Z,38.27
2022-08-07T07:39:52.565Z,38.32
2022-08-07T07:42:13.950Z,38.30
2022-08-07T07:44:32.806Z,38.39
2022-08-07T07:46:36.835Z,38.31
2022-08-07T07:47:58.213Z,38.44
2022-08-07T07:50:34.082Z,38.37
2022-08-07T07:55:22.981Z,38.46
2022-08-07T07:57:52.103Z,38.80
2022-08-07T08:00:02.693Z,38.86
2022-08-07T08:04:09.743Z,39.20
2022-08-07T08:04:57.865Z,39.15
2022-08-07T08:07:19.979Z,39.39
2022-08-07T08:08:35.037Z,39.34
2022-08-07T08:09:30.788Z,39.45
2022-08-07T08:12:02.102Z,39.69
2022-08-07T08:13:02.927Z,39.63
2022-08-07T08:14:06.481Z,39.68
2022-08-07T08:16:36.020Z,39.95
2022-08-07T08:18:56.151Z,40.13
2022-08-07T08:21:22.076Z,40.36
2022-08-07T08:25:25.095Z,40.07
2022-08-07T08:27:33.635Z,39.93
2022-08-07T08:29:56.054Z,39.96
2022-08-07T08:32:24.945Z,40.05
2022-08-07T08:33:26.394Z,39.92
2022-08-07T08:34:33.197Z,40.09
2022-08-07T08:36:57.699Z,40.39
2022-08-07T08:38:03.610Z,40.37
2022-08-07T08:39:06.964Z,40.52
2022-08-07T08:41:57.573Z,41.26
2022-08-07T08:44:41.295Z,41.53
2022-08-07T08:47:27.637Z,41.38
2022-08-07T08:48:53.008Z,41.32
2022-08-07T08:50:05.602Z,41.33
2022-08-07T08:52:32.278Z,41.62
2022-08-07T08:57:59.546Z,41.86
2022-08-07T08:59:27.833Z,41.85
2022-08-07T09:02:04.319Z,42.03
2022-08-07T09:05:02.187Z,42.13
2022-08-07T09:08:11.812Z,42.46
2022-08-07T09:09:36.754Z,42.55
2022-08-07T09:12:20.027Z,43.24
2022-08-07T09:16:35.351Z,43.22
2022-08-07T09:17:59.622Z,43.20
2022-08-07T09:18:59.477Z,43.26
2022-08-07T09:24:28.450Z,43.42
2022-08-07T09:24:30.793Z,43.42
2022-08-07T09:28:01.315Z,43.64
2022-08-07T09:30:06.307Z,44.01
2022-08-07T09:32:41.760Z,44.40
2022-08-07T09:36:04.047Z,44.20
2022-08-07T09:38:10.552Z,43.96
2022-08-07T09:40:55.073Z,43.61
2022-08-07T09:44:58.721Z,43.06
2022-08-07T09:47:42.659Z,42.83
2022-08-07T09:52:34.457Z,41.74
2022-08-07T09:53:40.826Z,41.45
2022-08-07T09:56:34.055Z,40.99
2022-08-07T09:59:46.739Z,39.58
2022-08-07T10:01:00.557Z,39.36
2022-08-07T10:02:33.423Z,52.81
2022-08-07T10:05:59.050Z,47.83
2022-08-07T10:08:26.844Z,47.89
2022-08-07T10:10:00.808Z,46.19
2022-08-07T10:12:00.099Z,47.16
2022-08-07T10:14:11.715Z,47.79
2022-08-07T10:15:25.001Z,47.68
2022-08-07T10:16:49.415Z,47.95
2022-08-07T10:19:17.964Z,47.76
2022-08-07T10:22:18.377Z,47.58
2022-08-07T10:24:04.843Z,47.31
2022-08-07T10:25:06.697Z,47.18
2022-08-07T10:34:45.269Z,46.33
2022-08-07T10:36:12.599Z,46.17
2022-08-07T10:37:48.125Z,46.12
2022-08-07T10:40:08.927Z,45.97
2022-08-07T10:43:01.094Z,45.35
2022-08-07T10:45:44.626Z,45.21
2022-08-07T10:48:34.635Z,44.98
2022-08-07T10:49:51.202Z,44.77
2022-08-07T10:52:14.040Z,44.61
2022-08-07T10:56:31.907Z,44.49
2022-08-07T10:59:21.201Z,43.78
2022-08-07T11:02:05.458Z,43.50
2022-08-07T11:03:18.744Z,43.35
2022-08-07T11:04:43.635Z,43.37
2022-08-07T11:07:59.327Z,43.15
2022-08-07T11:09:11.133Z,42.83
2022-08-07T11:11:51.889Z,42.55
2022-08-07T11:14:44.700Z,42.38
2022-08-07T11:17:45.068Z,42.06
2022-08-07T11:18:54.045Z,41.97
2022-08-07T11:20:03.359Z,41.90
2022-08-07T11:24:25.624Z,41.84
2022-08-07T11:29:42.818Z,41.84
2022-08-07T11:32:43.479Z,41.69
2022-08-07T11:35:11.260Z,41.60
2022-08-07T11:37:58.255Z,41.58
2022-08-07T11:39:19.502Z,41.36
2022-08-07T11:42:18.730Z,41.65
2022-08-07T11:43:54.449Z,41.77
2022-08-07T11:46:38.056Z,41.93
2022-08-07T11:49:51.580Z,41.80
2022-08-07T11:54:00.882Z,41.14
2022-08-07T12:02:30.322Z,41.31
2022-08-07T12:05:28.753Z,41.54
2022-08-07T12:08:25.910Z,41.51
2022-08-07T12:12:17.712Z,42.14
2022-08-07T12:14:53.761Z,41.23
2022-08-07T12:16:06.643Z,40.39
2022-08-07T12:18:37.246Z,40.52
2022-08-07T12:20:04.906Z,40.59
2022-08-07T12:22:39.415Z,40.37
2022-08-07T12:24:52.555Z,40.47
2022-08-07T12:27:18.012Z,40.72
2022-08-07T12:28:39.389Z,40.64
2022-08-07T12:31:17.101Z,40.14
2022-08-07T12:34:01.830Z,40.39
2022-08-07T12:35:08.335Z,40.27
2022-08-07T12:38:11.387Z,40.77
2022-08-07T12:39:50.895Z,41.90
2022-08-07T12:40:56.121Z,41.82
2022-08-07T12:42:02.619Z,42.02
2022-08-07T12:44:23.135Z,42.67
2022-08-07T12:47:27.145Z,42.62
2022-08-07T12:50:39.592Z,42.70
2022-08-07T12:51:46.768Z,42.57
2022-08-07T12:58:53.253Z,42.69
2022-08-07T13:01:32.627Z,42.20
2022-08-07T13:04:32.609Z,41.94
2022-08-07T13:06:03.676Z,41.81
2022-08-07T13:10:21.572Z,41.68
2022-08-07T13:15:32.487Z,41.29
2022-08-07T13:18:25.833Z,41.36
2022-08-07T13:19:50.788Z,41.26
2022-08-07T13:22:27.570Z,41.02
2022-08-07T13:24:55.335Z,40.96
2022-08-07T13:28:05.570Z,41.19
2022-08-07T13:30:03.697Z,41.15
2022-08-07T13:32:37.638Z,40.74
2022-08-07T13:35:21.349Z,40.47
2022-08-07T13:37:58.771Z,40.84
2022-08-07T13:43:11.782Z,40.19
2022-08-07T13:46:16.373Z,40.49
2022-08-07T13:52:43.235Z,40.38
2022-08-07T13:55:21.431Z,40.58
2022-08-07T13:56:36.217Z,40.49
2022-08-07T13:58:56.157Z,39.96
2022-08-07T14:01:20.385Z,40.06
2022-08-07T14:04:07.284Z,39.29
2022-08-07T14:06:17.902Z,38.62
2022-08-07T14:08:53.658Z,38.97
2022-08-07T14:10:02.273Z,38.42
2022-08-07T14:11:15.314Z,38.36
2022-08-07T14:13:34.693Z,39.00
2022-08-07T14:16:05.426Z,39.18
2022-08-07T14:20:41.712Z,38.77
2022-08-07T14:22:34.802Z,39.01
2022-08-07T14:24:00.516Z,38.09
2022-08-07T14:24:58.891Z,37.32
2022-08-07T14:28:57.265Z,37.94
2022-08-07T14:30:06.320Z,37.96
2022-08-07T14:32:13.825Z,38.26
2022-08-07T14:33:22.208Z,37.50
2022-08-07T14:34:30.130Z,37.60
2022-08-07T14:36:55.864Z,38.29
2022-08-07T14:38:03.033Z,37.65
2022-08-07T14:39:03.990Z,37.82
2022-08-07T14:47:48.158Z,37.04
2022-08-07T14:48:54.930Z,37.22
2022-08-07T14:49:59.354Z,37.31
2022-08-07T15:12:35.549Z,35.76
2022-08-07T15:16:55.002Z,35.19
2022-08-07T15:19:12.291Z,34.95
2022-08-07T15:21:45.166Z,34.98
2022-08-07T15:28:31.055Z,35.16
2022-08-07T15:32:01.275Z,35.03
2022-08-07T15:39:04.960Z,34.90
2022-08-07T15:40:32.070Z,34.98
2022-08-07T15:42:43.261Z,34.97
2022-08-07T15:44:08.508Z,34.86
2022-08-07T15:54:41.709Z,35.13
2022-08-07T15:57:01.210Z,34.99
2022-08-07T15:59:38.929Z,33.97
2022-08-07T16:02:01.866Z,33.79
2022-08-07T16:03:02.376Z,34.62
2022-08-07T16:04:14.540Z,33.97
2022-08-07T16:05:18.766Z,33.97
2022-08-07T16:09:22.820Z,35.74
2022-08-07T16:10:39.667Z,35.83
2022-08-07T16:15:55.612Z,34.74
2022-08-07T16:18:49.390Z,34.75
2022-08-07T16:22:02.359Z,34.31
2022-08-07T16:23:13.681Z,34.14
2022-08-07T16:25:57.037Z,34.71
2022-08-07T16:30:06.124Z,34.58
2022-08-07T16:30:31.150Z,34.11
2022-08-07T16:31:50.755Z,34.57
2022-08-07T16:34:33.877Z,34.37
2022-08-07T16:38:06.070Z,34.54
2022-08-07T16:40:28.115Z,35.12
2022-08-07T16:41:41.492Z,35.28
2022-08-07T16:46:21.213Z,35.72
2022-08-07T16:50:28.932Z,36.04
2022-08-07T16:55:52.733Z,35.42
2022-08-07T17:00:06.164Z,35.41
2022-08-07T17:03:05.829Z,35.45
2022-08-07T17:06:28.357Z,35.55
2022-08-07T17:13:17.123Z,35.57
2022-08-07T17:14:54.900Z,35.48
2022-08-07T17:17:46.470Z,35.34
2022-08-07T17:19:03.519Z,35.28
2022-08-07T17:21:51.876Z,35.50
2022-08-07T17:24:27.044Z,35.62
2022-08-07T17:25:52.578Z,35.48
2022-08-07T17:30:16.122Z,35.89
2022-08-07T17:34:08.465Z,35.71
2022-08-07T17:34:34.490Z,35.64
2022-08-07T17:35:55.247Z,35.76
2022-08-07T17:42:01.495Z,36.26
2022-08-07T17:44:14.738Z,36.40
2022-08-07T17:49:59.736Z,36.45
2022-08-07T17:58:05.109Z,36.53
2022-08-07T18:00:48.775Z,36.26
2022-08-07T18:04:03.743Z,36.32
2022-08-07T18:07:38.282Z,36.35
2022-08-07T18:12:17.844Z,36.62
2022-08-07T18:14:37.441Z,36.57
2022-08-07T18:16:04.880Z,36.40
2022-08-07T18:18:45.477Z,36.39
2022-08-07T18:21:53.561Z,36.58
2022-08-07T18:24:07.197Z,36.65
2022-08-07T18:27:04.775Z,36.32
2022-08-07T18:31:56.229Z,36.23
2022-08-07T18:33:38.337Z,36.04
2022-08-07T18:35:07.983Z,36.08
2022-08-07T18:38:55.757Z,36.12
2022-08-07T18:41:44.951Z,35.96
2022-08-07T18:45:39.982Z,35.82
2022-08-07T18:46:25.456Z,35.73
2022-08-07T18:51:08.953Z,35.75
2022-08-07T18:54:27.967Z,35.61
2022-08-07T18:55:43.328Z,35.44
2022-08-07T18:57:27.352Z,35.46
2022-08-07T19:00:32.026Z,35.59
2022-08-07T19:02:19.742Z,35.45
2022-08-07T19:02:53.773Z,35.55
2022-08-07T19:06:03.355Z,35.65
2022-08-07T19:09:59.076Z,35.79
2022-08-07T19:11:36.152Z,35.62
2022-08-07T19:13:50.315Z,35.79
2022-08-07T19:17:05.678Z,36.03
2022-08-07T19:19:47.689Z,35.88
2022-08-07T19:22:47.910Z,35.73
2022-08-07T19:26:22.929Z,35.68
2022-08-07T19:26:29.299Z,35.58
2022-08-07T19:28:58.376Z,35.52
2022-08-07T19:31:05.965Z,35.69
2022-08-07T19:35:23.891Z,36.08
2022-08-07T19:39:09.887Z,36.44
2022-08-07T19:42:49.749Z,36.65
2022-08-07T19:46:04.952Z,36.71
2022-08-07T19:50:44.393Z,36.62
2022-08-07T19:51:50.822Z,36.48
2022-08-07T19:52:59.266Z,36.47
2022-08-07T19:55:25.741Z,36.43
2022-08-07T19:58:13.104Z,36.34
2022-08-07T20:02:21.356Z,36.34
2022-08-07T20:04:31.661Z,36.56
2022-08-07T20:10:35.583Z,36.17
2022-08-07T20:12:49.157Z,35.90
2022-08-07T20:15:19.042Z,35.97
2022-08-07T20:19:02.723Z,35.91
2022-08-07T20:21:47.244Z,36.01
2022-08-07T20:24:38.963Z,35.49
2022-08-07T20:27:04.651Z,35.80
2022-08-07T20:31:01.190Z,35.40
2022-08-07T20:33:44.398Z,35.21
2022-08-07T20:36:09.499Z,34.99
2022-08-07T20:40:02.920Z,34.61
2022-08-07T20:42:15.083Z,34.09
2022-08-07T20:43:21.616Z,33.87
2022-08-07T20:46:26.655Z,33.82
2022-08-07T20:48:29.787Z,33.55
2022-08-07T20:49:59.636Z,33.63
2022-08-07T20:50:33.728Z,33.56
2022-08-07T20:52:51.896Z,33.36
2022-08-07T20:55:09.483Z,33.71
2022-08-07T20:56:20.120Z,33.59
2022-08-07T20:57:29.015Z,33.69
2022-08-07T20:58:36.448Z,33.71
2022-08-07T21:02:27.802Z,33.86
2022-08-07T21:03:30.637Z,33.60
2022-08-07T21:04:36.221Z,33.69
2022-08-07T21:05:55.912Z,33.66
2022-08-07T21:08:13.514Z,33.71
2022-08-07T21:09:19.932Z,33.57
2022-08-07T21:10:31.409Z,33.60
2022-08-07T21:13:16.744Z,33.59
2022-08-07T21:14:33.855Z,33.59
2022-08-07T21:15:58.754Z,33.59
2022-08-07T21:18:17.259Z,33.43
2022-08-07T21:20:30.414Z,33.28
2022-08-07T21:22:51.191Z,33.41
2022-08-07T21:26:52.711Z,33.73
2022-08-07T21:28:06.294Z,33.63
2022-08-07T21:30:30.939Z,33.68
2022-08-07T21:33:14.534Z,33.60
2022-08-07T21:34:34.483Z,33.68
2022-08-07T21:37:57.541Z,33.62
2022-08-07T21:38:39.165Z,33.54
2022-08-07T21:41:52.150Z,33.37
2022-08-07T21:44:33.348Z,32.78
2022-08-07T21:51:51.033Z,33.05
2022-08-07T21:54:20.992Z,32.88
2022-08-07T21:57:31.595Z,33.00
2022-08-07T21:58:45.895Z,32.95
2022-08-07T22:02:06.979Z,33.05
2022-08-07T22:04:10.772Z,32.86
2022-08-07T22:06:54.013Z,32.87
2022-08-07T22:10:37.534Z,32.93
2022-08-07T22:13:03.385Z,33.12
2022-08-07T22:20:02.675Z,33.17
2022-08-07T22:21:21.209Z,32.99
2022-08-07T22:23:48.972Z,33.22
2022-08-07T22:24:56.269Z,33.18
2022-08-07T22:28:20.063Z,33.27
2022-08-07T22:30:18.869Z,33.43
2022-08-07T22:33:13.737Z,33.52
2022-08-07T22:35:49.902Z,33.47
2022-08-07T22:39:53.532Z,33.60
2022-08-07T22:42:19.043Z,33.78
2022-08-07T22:44:59.519Z,33.98
2022-08-07T22:49:54.462Z,33.79
2022-08-07T22:51:08.583Z,33.69
2022-08-07T22:54:15.066Z,33.75
2022-08-07T22:57:30.517Z,33.72
2022-08-07T23:00:28.777Z,33.43
2022-08-07T23:01:58.937Z,33.10
2022-08-07T23:04:57.023Z,33.34
2022-08-07T23:07:41.324Z,33.43
2022-08-07T23:10:48.069Z,33.65
2022-08-07T23:14:09.641Z,33.76
2022-08-07T23:14:57.146Z,33.63
2022-08-07T23:18:08.590Z,33.80
2022-08-07T23:19:27.917Z,33.67
2022-08-07T23:21:11.081Z,33.75
2022-08-07T23:22:39.557Z,33.76
2022-08-07T23:25:10.294Z,33.80
2022-08-07T23:26:23.339Z,33.71
2022-08-07T23:28:22.400Z,33.68
2022-08-07T23:31:06.556Z,33.70
2022-08-07T23:34:35.913Z,34.00
2022-08-07T23:34:56.327Z,33.93
2022-08-07T23:38:08.091Z,33.81
2022-08-07T23:39:23.244Z,33.65
2022-08-07T23:42:05.747Z,33.68
2022-08-07T23:43:22.521Z,33.57
2022-08-07T23:46:23.501Z,33.61
2022-08-07T23:49:05.991Z,33.61
2022-08-07T23:50:26.974Z,33.51
2022-08-07T23:53:17.042Z,33.44
2022-08-07T23:54:19.505Z,33.86
2022-08-07T23:55:53.388Z,33.81
2022-08-07T23:58:21.412Z,33.99
